aviador You're here:

FASI Decoded Metar

SPRINGS in SOUTH AFRICA
Report Time2017-08-23 10:00:00
UTC Time2017-08-23 10:05:43
Flight Rules unknown UNKNOWN
Wind260° at 06 kt
W.Decomp.*RWY 32: 4.3 kt HW 4.2 kt LCW
RWY 21: 2.4 kt HW 5.5 kt RCW
W.Rank260° ranks 28
Current wind is above 260° avg. (3.3)
VisibilityN/A
Phenomena:N/A
Clouds:N/A
Expected CloudBase > 8,000 ft AGL from Temp-Dew spread
CeilingNone
Temp13°C (ISA +9)
Dew Point-7°C (24% RH)
AAT8.0°C
QNH1024 hPa
Density Alt6,033 ft
Elevation5,341 ft
Report Wrong Elevation
Raw Report
METAR FASI 231000Z AUTO 26006KT //// // ////// 13/M07 Q1024=

Extra information for FASI:More info

Metar Taf Metar & Taf Last 4 Metars F.Rules Stats Wind Profile Meteogram Temp Stats Airport Information Weather charts Add Link Nearby VenuesMetar ALERT Operation Metar Decoded Social comments